Time;durP1;ratioP1;P1;durP2;ratioP2;P2;SDS_P1;SDS_P2;PMS_P1;PMS_P2;Temp;Humidity;BMP_temperature;BMP_pressure;BME280_temperature;BME280_humidity;BME280_pressure;Samples;Min_cycle;Max_cycle;Signal;HPM_P1;HPM_P2
2022/07/15 00:00:09;;;;;;;;;;;15.20;99.90;;;;;;5138089;27;20267;-76
2022/07/15 00:02:34;;;;;;;;;;;15.20;99.90;;;;;;5138803;27;19933;-75
2022/07/15 00:04:59;;;;;;;;;;;15.20;99.90;;;;;;5139485;27;19919;-74
2022/07/15 00:07:25;;;;;;;;;;;15.20;99.90;;;;;;5138421;27;19938;-76
2022/07/15 00:12:35;;;;;;;;;;;15.20;99.90;;;;;;5160388;27;19923;-75
2022/07/15 00:15:01;;;;;;;;;;;15.30;99.90;;;;;;5157341;27;19923;-76
2022/07/15 00:17:26;;;;;;;;;;;15.50;99.90;;;;;;5159132;27;20305;-77
2022/07/15 00:19:52;;;;;;;;;;;15.10;99.90;;;;;;5139407;27;19930;-76
2022/07/15 00:22:18;;;;;;;;;;;15.00;99.90;;;;;;5140818;27;19946;-77
2022/07/15 00:24:44;;;;;;;;;;;15.00;99.90;;;;;;5137274;27;20374;-77
2022/07/15 00:27:09;;;;;;;;;;;14.90;99.90;;;;;;5155407;27;19926;-77
2022/07/15 00:29:35;;;;;;;;;;;14.80;99.90;;;;;;5143584;27;19958;-76
2022/07/15 00:32:00;;;;;;;;;;;14.80;99.90;;;;;;5143405;27;19922;-76
2022/07/15 00:34:26;;;;;;;;;;;14.70;99.90;;;;;;5143538;27;20338;-76
2022/07/15 00:36:51;;;;;;;;;;;14.60;99.90;;;;;;5141255;27;19930;-76
2022/07/15 00:39:17;;;;;;;;;;;14.70;99.90;;;;;;5154876;27;19931;-75
2022/07/15 00:41:43;;;;;;;;;;;14.40;99.90;;;;;;5154706;27;19919;-77
2022/07/15 00:44:08;;;;;;;;;;;14.40;99.90;;;;;;5137210;27;20371;-77
2022/07/15 00:46:35;;;;;;;;;;;14.30;99.90;;;;;;5139116;27;19970;-76
2022/07/15 00:49:02;;;;;;;;;;;14.30;99.90;;;;;;5154656;27;20368;-76
2022/07/15 00:51:31;;;;;;;;;;;14.20;99.90;;;;;;5157933;27;20418;-76
2022/07/15 00:53:56;;;;;;;;;;;14.10;99.90;;;;;;5157926;27;19930;-76
2022/07/15 00:56:23;;;;;;;;;;;14.20;99.90;;;;;;5164583;27;19922;-76
2022/07/15 00:58:49;;;;;;;;;;;14.40;99.90;;;;;;5144773;27;19927;-76
2022/07/15 01:01:16;;;;;;;;;;;14.00;99.90;;;;;;5136326;27;19923;-75
2022/07/15 01:03:42;;;;;;;;;;;14.40;99.90;;;;;;5135331;27;19959;-76
2022/07/15 01:06:07;;;;;;;;;;;14.30;99.90;;;;;;5137330;27;19965;-76
2022/07/15 01:08:33;;;;;;;;;;;14.10;99.90;;;;;;5138614;27;19923;-77
2022/07/15 01:10:58;;;;;;;;;;;14.10;99.90;;;;;;5156132;27;19922;-77
2022/07/15 01:13:24;;;;;;;;;;;14.10;99.90;;;;;;5155674;27;19938;-75
2022/07/15 01:15:49;;;;;;;;;;;14.10;99.90;;;;;;5137771;27;20397;-76
2022/07/15 01:18:15;;;;;;;;;;;14.00;99.90;;;;;;5161589;27;20319;-75
2022/07/15 01:20:41;;;;;;;;;;;14.00;99.90;;;;;;5143139;27;19923;-75
2022/07/15 01:23:07;;;;;;;;;;;14.00;99.90;;;;;;5142364;27;19923;-75
2022/07/15 01:25:32;;;;;;;;;;;13.90;99.90;;;;;;5161721;27;19975;-76
2022/07/15 01:27:58;;;;;;;;;;;13.80;99.90;;;;;;5143226;27;20018;-76
2022/07/15 01:30:24;;;;;;;;;;;13.80;99.90;;;;;;5150401;27;20017;-76
2022/07/15 01:32:49;;;;;;;;;;;13.70;99.90;;;;;;5165164;27;19968;-76
2022/07/15 01:35:15;;;;;;;;;;;13.60;99.90;;;;;;5167919;27;19982;-76
2022/07/15 01:37:40;;;;;;;;;;;13.60;99.90;;;;;;5146413;27;19929;-76
2022/07/15 01:40:07;;;;;;;;;;;13.50;99.90;;;;;;5148786;27;19929;-77
2022/07/15 01:42:33;;;;;;;;;;;13.50;99.90;;;;;;5142456;27;20016;-77
2022/07/15 01:44:58;;;;;;;;;;;13.50;99.90;;;;;;5148486;27;20367;-77
2022/07/15 01:47:24;;;;;;;;;;;13.40;99.90;;;;;;5147482;27;20030;-76
2022/07/15 01:49:49;;;;;;;;;;;13.40;99.90;;;;;;5148979;27;19930;-76
2022/07/15 01:52:15;;;;;;;;;;;13.40;99.90;;;;;;5144730;27;20398;-77
2022/07/15 01:54:41;;;;;;;;;;;13.30;99.90;;;;;;5147136;27;20015;-76
2022/07/15 01:57:06;;;;;;;;;;;13.40;99.90;;;;;;5144153;27;19926;-76
2022/07/15 01:59:32;;;;;;;;;;;13.20;99.90;;;;;;5148636;27;20298;-76
2022/07/15 02:01:57;;;;;;;;;;;13.40;99.90;;;;;;5167672;27;20388;-76
2022/07/15 02:04:23;;;;;;;;;;;13.10;99.90;;;;;;5147624;27;19954;-76
2022/07/15 02:06:49;;;;;;;;;;;13.10;99.90;;;;;;5149755;27;19927;-76
2022/07/15 02:09:15;;;;;;;;;;;11.80;99.90;;;;;;5165825;27;19970;-76
2022/07/15 02:11:41;;;;;;;;;;;13.00;99.90;;;;;;5149906;27;19958;-77
2022/07/15 02:14:06;;;;;;;;;;;13.10;99.90;;;;;;5146599;27;21492;-76
2022/07/15 02:16:33;;;;;;;;;;;13.30;99.90;;;;;;5167730;27;19930;-76
2022/07/15 02:18:58;;;;;;;;;;;12.80;99.90;;;;;;5166802;27;19931;-76
2022/07/15 02:21:26;;;;;;;;;;;13.20;99.90;;;;;;5147257;27;19975;-76
2022/07/15 02:23:52;;;;;;;;;;;12.90;99.90;;;;;;5167563;27;19923;-76
2022/07/15 02:26:18;;;;;;;;;;;12.90;99.90;;;;;;5149195;27;19930;-76
2022/07/15 02:28:44;;;;;;;;;;;13.30;99.90;;;;;;5145983;27;20385;-76
2022/07/15 02:31:09;;;;;;;;;;;13.60;99.90;;;;;;5168514;27;19923;-76
2022/07/15 02:33:35;;;;;;;;;;;13.10;99.90;;;;;;5147300;27;19930;-76
2022/07/15 02:36:00;;;;;;;;;;;12.90;99.90;;;;;;5147857;27;19931;-76
2022/07/15 02:38:26;;;;;;;;;;;13.10;99.90;;;;;;5147264;27;20445;-75
2022/07/15 02:40:51;;;;;;;;;;;12.80;99.90;;;;;;5146535;27;20002;-75
2022/07/15 02:43:17;;;;;;;;;;;12.80;99.90;;;;;;5164645;27;19980;-76
2022/07/15 02:45:42;;;;;;;;;;;12.80;99.90;;;;;;5146272;27;20278;-76
2022/07/15 02:48:08;;;;;;;;;;;12.80;99.90;;;;;;5148675;27;19927;-76
2022/07/15 02:50:34;;;;;;;;;;;12.80;99.90;;;;;;5146484;27;19923;-75
2022/07/15 02:53:00;;;;;;;;;;;12.70;99.90;;;;;;5167223;27;20013;-76
2022/07/15 02:55:26;;;;;;;;;;;12.70;99.90;;;;;;5165104;27;19923;-76
2022/07/15 02:57:52;;;;;;;;;;;12.60;99.90;;;;;;5145104;27;19934;-76
2022/07/15 03:00:19;;;;;;;;;;;12.50;99.90;;;;;;5147554;27;19927;-75
2022/07/15 03:02:45;;;;;;;;;;;12.50;99.90;;;;;;5147501;27;20282;-76
2022/07/15 03:05:11;;;;;;;;;;;12.50;99.90;;;;;;5145755;27;19930;-76
2022/07/15 03:07:37;;;;;;;;;;;12.40;99.90;;;;;;5167695;27;20384;-76
2022/07/15 03:10:04;;;;;;;;;;;12.40;99.90;;;;;;5140204;27;19927;-76
2022/07/15 03:12:29;;;;;;;;;;;12.30;99.90;;;;;;5148249;27;19929;-75
2022/07/15 03:14:55;;;;;;;;;;;12.30;99.90;;;;;;5146158;27;19923;-76
2022/07/15 03:17:20;;;;;;;;;;;12.80;99.90;;;;;;5165338;27;19951;-76
2022/07/15 03:19:46;;;;;;;;;;;12.30;99.90;;;;;;5147643;27;19923;-76
2022/07/15 03:22:11;;;;;;;;;;;12.30;99.90;;;;;;5164297;27;19930;-76
2022/07/15 03:24:37;;;;;;;;;;;12.30;99.90;;;;;;5147609;27;19927;-76
2022/07/15 03:27:02;;;;;;;;;;;12.20;99.90;;;;;;5163513;27;20305;-76
2022/07/15 03:29:29;;;;;;;;;;;12.20;99.90;;;;;;5167340;27;20398;-76
2022/07/15 03:31:54;;;;;;;;;;;12.70;99.90;;;;;;5144739;27;19927;-76
2022/07/15 03:34:20;;;;;;;;;;;12.10;99.90;;;;;;5147142;27;19923;-76
2022/07/15 03:36:46;;;;;;;;;;;12.80;99.90;;;;;;5165291;27;19930;-76
2022/07/15 03:39:11;;;;;;;;;;;12.10;99.90;;;;;;5163868;27;19933;-76
2022/07/15 03:41:37;;;;;;;;;;;12.10;99.90;;;;;;5143394;27;19976;-76
2022/07/15 03:44:02;;;;;;;;;;;12.10;99.90;;;;;;5140151;27;19923;-76
2022/07/15 03:46:29;;;;;;;;;;;12.10;99.90;;;;;;5166096;27;19922;-76
2022/07/15 03:48:55;;;;;;;;;;;12.10;99.90;;;;;;5162550;27;19975;-75
2022/07/15 03:51:21;;;;;;;;;;;12.10;99.90;;;;;;5145698;27;20334;-74
2022/07/15 03:53:46;;;;;;;;;;;12.30;99.90;;;;;;5164034;27;20098;-77
2022/07/15 03:56:12;;;;;;;;;;;12.10;99.90;;;;;;5144172;27;19934;-77
2022/07/15 03:58:37;;;;;;;;;;;12.10;99.90;;;;;;5144858;27;19972;-77
2022/07/15 04:01:03;;;;;;;;;;;12.50;99.90;;;;;;5165834;27;20148;-77
2022/07/15 04:03:29;;;;;;;;;;;12.30;99.90;;;;;;5162846;27;20374;-76
2022/07/15 04:05:55;;;;;;;;;;;12.30;99.90;;;;;;5165938;27;19922;-77
2022/07/15 04:08:20;;;;;;;;;;;12.30;99.90;;;;;;5144357;27;19930;-77
2022/07/15 04:10:46;;;;;;;;;;;12.30;99.90;;;;;;5145072;27;19975;-77
2022/07/15 04:13:11;;;;;;;;;;;12.40;99.90;;;;;;5161173;27;19923;-77
2022/07/15 04:15:37;;;;;;;;;;;12.40;99.90;;;;;;5143727;27;19927;-77
2022/07/15 04:18:02;;;;;;;;;;;12.80;99.90;;;;;;5144506;27;20433;-77
2022/07/15 04:20:28;;;;;;;;;;;12.40;99.90;;;;;;5160526;27;19923;-77
2022/07/15 04:22:53;;;;;;;;;;;12.40;99.90;;;;;;5163913;27;19958;-77
2022/07/15 04:25:20;;;;;;;;;;;12.70;99.90;;;;;;5162364;27;20285;-77
2022/07/15 04:27:47;;;;;;;;;;;12.40;99.90;;;;;;5145359;27;19923;-76
2022/07/15 04:30:13;;;;;;;;;;;12.90;99.90;;;;;;5164755;27;19923;-77
2022/07/15 04:32:39;;;;;;;;;;;12.60;99.90;;;;;;5163662;27;19974;-77
2022/07/15 04:35:04;;;;;;;;;;;12.70;99.90;;;;;;5163174;27;19923;-77
2022/07/15 04:37:30;;;;;;;;;;;12.90;99.90;;;;;;5146536;27;19931;-77
2022/07/15 04:39:56;;;;;;;;;;;13.00;99.90;;;;;;5144397;27;20346;-77
2022/07/15 04:42:22;;;;;;;;;;;13.10;99.90;;;;;;5159219;27;20382;-77
2022/07/15 04:44:48;;;;;;;;;;;13.20;99.90;;;;;;5139742;27;19926;-76
2022/07/15 04:47:14;;;;;;;;;;;13.60;99.90;;;;;;5165275;27;19923;-77
2022/07/15 04:52:24;;;;;;;;;;;13.60;99.90;;;;;;5159576;27;19923;-77
2022/07/15 04:54:50;;;;;;;;;;;13.70;99.90;;;;;;5164757;27;19975;-77
2022/07/15 04:57:15;;;;;;;;;;;14.30;99.90;;;;;;5160758;27;19922;-76
2022/07/15 04:59:41;;;;;;;;;;;13.80;99.90;;;;;;5144166;27;20331;-77
2022/07/15 05:02:06;;;;;;;;;;;13.90;99.90;;;;;;5150275;27;20400;-76
2022/07/15 05:04:32;;;;;;;;;;;14.00;99.90;;;;;;5151780;27;19927;-76
2022/07/15 05:06:57;;;;;;;;;;;14.00;99.90;;;;;;5170512;27;20025;-77
2022/07/15 05:09:23;;;;;;;;;;;14.10;99.90;;;;;;5171159;27;19923;-77
2022/07/15 05:11:48;;;;;;;;;;;14.10;99.90;;;;;;5146807;27;19927;-76
2022/07/15 05:14:14;;;;;;;;;;;14.20;99.90;;;;;;5153329;27;19922;-77
2022/07/15 05:16:39;;;;;;;;;;;14.20;99.90;;;;;;5149978;27;19974;-77
2022/07/15 05:19:05;;;;;;;;;;;15.00;99.90;;;;;;5171248;27;19923;-76
2022/07/15 05:21:31;;;;;;;;;;;14.40;99.90;;;;;;5151635;27;19926;-77
2022/07/15 05:23:57;;;;;;;;;;;14.40;99.90;;;;;;5150733;27;19923;-76
2022/07/15 05:26:23;;;;;;;;;;;14.60;99.90;;;;;;5171314;27;19923;-77
2022/07/15 05:28:49;;;;;;;;;;;14.70;99.90;;;;;;5169778;27;19927;-77
2022/07/15 05:31:14;;;;;;;;;;;14.80;99.90;;;;;;5171718;27;19922;-76
2022/07/15 05:33:40;;;;;;;;;;;14.90;99.90;;;;;;5150553;27;20369;-76
2022/07/15 05:36:10;;;;;;;;;;;15.00;99.90;;;;;;5152608;27;20301;-77
2022/07/15 05:38:35;;;;;;;;;;;15.20;99.90;;;;;;5168344;27;20374;-77
2022/07/15 05:41:01;;;;;;;;;;;15.30;99.90;;;;;;5168452;27;19930;-77
2022/07/15 05:43:26;;;;;;;;;;;15.40;99.90;;;;;;5162545;27;19969;-76
2022/07/15 05:45:52;;;;;;;;;;;15.40;99.90;;;;;;5152604;27;20319;-75
2022/07/15 05:48:18;;;;;;;;;;;15.50;99.90;;;;;;5170832;27;19931;-76
2022/07/15 05:50:43;;;;;;;;;;;15.60;99.90;;;;;;5143989;27;20018;-77
2022/07/15 05:53:09;;;;;;;;;;;15.70;99.90;;;;;;5170241;27;19923;-77
2022/07/15 05:55:34;;;;;;;;;;;15.70;99.90;;;;;;5149902;27;19923;-77
2022/07/15 05:58:00;;;;;;;;;;;15.90;99.90;;;;;;5149393;27;19978;-77
2022/07/15 06:00:25;;;;;;;;;;;15.80;99.90;;;;;;5142895;27;19922;-76
2022/07/15 06:02:51;;;;;;;;;;;15.90;99.90;;;;;;5163557;27;19923;-76
2022/07/15 06:05:17;;;;;;;;;;;15.90;99.90;;;;;;5149999;27;20497;-76
2022/07/15 06:07:43;;;;;;;;;;;15.90;99.90;;;;;;5152109;27;20017;-76
2022/07/15 06:10:09;;;;;;;;;;;16.20;99.90;;;;;;5149716;27;20438;-76
2022/07/15 06:12:34;;;;;;;;;;;15.90;99.90;;;;;;5165732;27;20281;-76
2022/07/15 06:15:00;;;;;;;;;;;15.90;99.90;;;;;;5164774;27;20361;-76
2022/07/15 06:17:25;;;;;;;;;;;16.00;99.90;;;;;;5149225;27;20014;-76
2022/07/15 06:19:51;;;;;;;;;;;16.00;99.90;;;;;;5146088;27;19930;-76
2022/07/15 06:22:16;;;;;;;;;;;16.00;99.90;;;;;;5148614;27;19923;-76
2022/07/15 06:24:42;;;;;;;;;;;16.00;99.90;;;;;;5147632;27;20279;-76
2022/07/15 06:27:07;;;;;;;;;;;16.10;99.90;;;;;;5166745;27;20013;-76
2022/07/15 06:29:33;;;;;;;;;;;16.40;99.90;;;;;;5146292;27;19919;-76
2022/07/15 06:31:58;;;;;;;;;;;16.10;99.90;;;;;;5167893;27;19927;-76
2022/07/15 06:34:24;;;;;;;;;;;16.20;99.90;;;;;;5165073;27;20011;-75
2022/07/15 06:36:50;;;;;;;;;;;16.70;99.90;;;;;;5144229;27;19923;-76
2022/07/15 06:39:16;;;;;;;;;;;16.80;99.90;;;;;;5148119;27;19923;-75
2022/07/15 06:41:42;;;;;;;;;;;16.50;99.90;;;;;;5165571;27;19923;-76
2022/07/15 06:44:07;;;;;;;;;;;16.60;99.90;;;;;;5148643;27;19926;-76
2022/07/15 06:46:33;;;;;;;;;;;16.60;99.90;;;;;;5146396;27;19974;-76
2022/07/15 06:48:59;;;;;;;;;;;16.60;99.90;;;;;;5148379;27;19922;-75
2022/07/15 06:51:25;;;;;;;;;;;16.60;99.90;;;;;;5163766;27;20006;-75
2022/07/15 06:53:50;;;;;;;;;;;16.70;99.90;;;;;;5146457;27;20379;-75
2022/07/15 06:56:16;;;;;;;;;;;16.70;99.90;;;;;;5147054;27;19919;-76
2022/07/15 06:58:41;;;;;;;;;;;16.80;99.90;;;;;;5166582;27;19970;-77
2022/07/15 07:01:07;;;;;;;;;;;16.80;99.90;;;;;;5164333;27;19958;-77
2022/07/15 07:03:32;;;;;;;;;;;16.90;99.90;;;;;;5167649;27;19973;-74
2022/07/15 07:05:58;;;;;;;;;;;17.10;99.90;;;;;;5163708;27;20320;-75
2022/07/15 07:08:23;;;;;;;;;;;17.20;99.90;;;;;;5167174;27;19930;-74
2022/07/15 07:10:49;;;;;;;;;;;17.40;99.90;;;;;;5164667;27;19927;-75
2022/07/15 07:13:15;;;;;;;;;;;17.60;99.90;;;;;;5148158;27;19968;-76
2022/07/15 07:15:40;;;;;;;;;;;17.70;99.90;;;;;;5146984;27;19929;-76
2022/07/15 07:18:06;;;;;;;;;;;17.90;99.90;;;;;;5147085;27;19930;-74
2022/07/15 07:20:31;;;;;;;;;;;18.10;99.60;;;;;;5163885;27;19923;-76
2022/07/15 07:22:57;;;;;;;;;;;18.30;99.70;;;;;;5162876;27;19918;-75
2022/07/15 07:25:23;;;;;;;;;;;18.50;99.50;;;;;;5149083;27;20018;-75
2022/07/15 07:27:48;;;;;;;;;;;18.60;98.90;;;;;;5144985;27;19976;-75
2022/07/15 07:30:14;;;;;;;;;;;18.80;99.10;;;;;;5146445;27;20290;-75
2022/07/15 07:32:39;;;;;;;;;;;19.20;97.60;;;;;;5165220;27;20281;-75
2022/07/15 07:35:05;;;;;;;;;;;19.90;98.20;;;;;;5165002;27;20022;-75
2022/07/15 07:37:34;;;;;;;;;;;20.70;98.00;;;;;;5165417;27;19923;-76
2022/07/15 07:40:00;;;;;;;;;;;21.60;96.00;;;;;;5145888;27;20305;-76
2022/07/15 07:42:25;;;;;;;;;;;21.80;95.00;;;;;;5166270;27;20396;-76
2022/07/15 07:44:51;;;;;;;;;;;21.40;95.30;;;;;;5161514;27;20419;-76
2022/07/15 07:47:16;;;;;;;;;;;21.70;94.60;;;;;;5145173;27;19963;-76
2022/07/15 07:49:42;;;;;;;;;;;22.40;94.90;;;;;;5147659;27;19962;-76
2022/07/15 07:52:07;;;;;;;;;;;23.60;94.60;;;;;;5163382;27;19933;-75
2022/07/15 07:54:33;;;;;;;;;;;22.50;94.00;;;;;;5146495;27;19918;-76
2022/07/15 07:56:58;;;;;;;;;;;22.30;93.60;;;;;;5146265;27;19922;-78
2022/07/15 07:59:24;;;;;;;;;;;22.70;93.50;;;;;;5162667;27;20326;-77
2022/07/15 08:01:49;;;;;;;;;;;22.50;92.70;;;;;;5165910;27;19925;-76
2022/07/15 08:04:15;;;;;;;;;;;22.60;93.60;;;;;;5163101;27;19923;-75
2022/07/15 08:06:41;;;;;;;;;;;22.60;93.00;;;;;;5165254;27;19971;-76
2022/07/15 08:09:06;;;;;;;;;;;22.60;93.30;;;;;;5163661;27;19975;-76
2022/07/15 08:11:32;;;;;;;;;;;22.90;92.90;;;;;;5164249;27;20009;-75
2022/07/15 08:13:57;;;;;;;;;;;23.50;92.90;;;;;;5145078;27;19928;-76
2022/07/15 08:16:23;;;;;;;;;;;24.30;92.60;;;;;;5147117;27;20384;-76
2022/07/15 08:18:48;;;;;;;;;;;24.60;91.20;;;;;;5143534;27;19934;-75
2022/07/15 08:21:14;;;;;;;;;;;24.80;91.30;;;;;;5147806;27;19922;-79
2022/07/15 08:23:40;;;;;;;;;;;24.90;90.60;;;;;;5157974;27;19922;-80
2022/07/15 08:26:07;;;;;;;;;;;24.20;90.10;;;;;;5162048;27;20287;-80
2022/07/15 08:28:33;;;;;;;;;;;23.80;91.40;;;;;;5146906;27;19930;-76
2022/07/15 08:30:59;;;;;;;;;;;24.00;91.90;;;;;;5163922;27;19923;-77
2022/07/15 08:33:24;;;;;;;;;;;24.30;91.30;;;;;;5144797;27;20386;-78
2022/07/15 08:35:50;;;;;;;;;;;23.80;91.00;;;;;;5164540;27;19923;-76
2022/07/15 08:38:15;;;;;;;;;;;24.00;91.50;;;;;;5144165;27;19923;-73
2022/07/15 08:40:43;;;;;;;;;;;24.20;92.00;;;;;;5142981;27;19923;-72
2022/07/15 08:43:10;;;;;;;;;;;24.30;91.40;;;;;;5139695;27;19931;-77
2022/07/15 08:45:37;;;;;;;;;;;24.50;91.00;;;;;;5147647;27;19923;-74
2022/07/15 08:48:03;;;;;;;;;;;24.70;90.40;;;;;;5143130;27;19923;-75
2022/07/15 08:50:29;;;;;;;;;;;24.90;90.40;;;;;;5165367;27;19930;-78
2022/07/15 08:52:55;;;;;;;;;;;25.00;89.60;;;;;;5144373;27;19918;-79
2022/07/15 08:55:20;;;;;;;;;;;25.20;89.60;;;;;;5143280;27;19923;-83
2022/07/15 08:57:46;;;;;;;;;;;25.40;89.90;;;;;;5163128;27;20371;-82
2022/07/15 09:00:12;;;;;;;;;;;25.20;90.30;;;;;;5165685;27;20350;-82
2022/07/15 09:02:38;;;;;;;;;;;24.40;89.10;;;;;;5161999;27;19931;-83
2022/07/15 09:05:22;;;;;;;;;;;24.60;90.30;;;;;;5143694;27;20347;-81
2022/07/15 09:08:00;;;;;;;;;;;25.00;90.00;;;;;;5142009;27;19974;-75
2022/07/15 09:10:44;;;;;;;;;;;25.30;88.50;;;;;;5142801;27;20440;-82
2022/07/15 09:13:10;;;;;;;;;;;25.40;87.30;;;;;;5158764;27;19930;-81
2022/07/15 09:15:37;;;;;;;;;;;25.30;86.80;;;;;;5164895;27;19945;-79
2022/07/15 09:18:13;;;;;;;;;;;24.70;87.20;;;;;;5159071;27;19923;-80
2022/07/15 09:20:40;;;;;;;;;;;24.80;88.00;;;;;;5158956;27;19927;-79
2022/07/15 09:23:06;;;;;;;;;;;25.00;87.30;;;;;;5162063;27;19935;-80
2022/07/15 09:25:35;;;;;;;;;;;25.20;88.90;;;;;;5147220;27;20350;-85
2022/07/15 09:28:02;;;;;;;;;;;25.70;87.80;;;;;;5139561;27;20025;-87
2022/07/15 09:33:37;;;;;;;;;;;25.60;87.20;;;;;;5160053;27;19923;-81
2022/07/15 09:36:22;;;;;;;;;;;25.50;88.40;;;;;;5156979;27;19923;-75
2022/07/15 09:38:49;;;;;;;;;;;25.30;89.10;;;;;;5142346;27;20298;-74
2022/07/15 09:41:28;;;;;;;;;;;24.90;88.90;;;;;;5163898;27;19923;-76
2022/07/15 09:43:59;;;;;;;;;;;24.50;89.40;;;;;;5145669;27;19923;-76
2022/07/15 09:46:26;;;;;;;;;;;24.40;90.60;;;;;;5143607;27;19927;-74
2022/07/15 09:48:52;;;;;;;;;;;24.50;90.60;;;;;;5165898;27;19927;-76
2022/07/15 09:51:18;;;;;;;;;;;24.40;90.00;;;;;;5147385;27;19927;-75
2022/07/15 09:53:44;;;;;;;;;;;24.30;90.00;;;;;;5148627;27;20285;-76
2022/07/15 09:56:11;;;;;;;;;;;24.30;90.20;;;;;;5166689;27;19934;-75
2022/07/15 09:58:38;;;;;;;;;;;24.60;90.80;;;;;;5167077;27;19927;-76
2022/07/15 10:01:03;;;;;;;;;;;24.20;91.10;;;;;;5147211;27;19930;-75
2022/07/15 10:03:31;;;;;;;;;;;24.10;91.30;;;;;;5168555;27;19919;-75
2022/07/15 10:05:59;;;;;;;;;;;23.90;91.40;;;;;;5145635;27;20101;-75
2022/07/15 10:08:25;;;;;;;;;;;24.00;91.40;;;;;;5140944;27;19971;-74
2022/07/15 10:10:51;;;;;;;;;;;23.90;91.00;;;;;;5144706;27;19958;-75
2022/07/15 10:13:37;;;;;;;;;;;23.60;91.50;;;;;;5147605;27;19923;-76
2022/07/15 10:16:28;;;;;;;;;;;23.30;91.70;;;;;;5163253;27;20298;-75
2022/07/15 10:19:03;;;;;;;;;;;23.90;92.60;;;;;;5130629;27;19922;-76
2022/07/15 10:21:38;;;;;;;;;;;24.60;91.60;;;;;;5162405;27;20378;-75
2022/07/15 10:24:18;;;;;;;;;;;25.30;90.80;;;;;;5147620;27;19922;-75
2022/07/15 10:26:44;;;;;;;;;;;25.10;90.70;;;;;;5149285;27;19923;-76
2022/07/15 10:29:11;;;;;;;;;;;25.00;90.70;;;;;;5166335;27;19922;-74
2022/07/15 10:31:38;;;;;;;;;;;24.70;91.00;;;;;;5147049;27;19923;-74
2022/07/15 10:34:04;;;;;;;;;;;25.20;91.00;;;;;;5165310;27;19919;-74
2022/07/15 10:36:49;;;;;;;;;;;25.10;90.60;;;;;;5149296;27;19946;-75
2022/07/15 10:39:15;;;;;;;;;;;25.30;90.60;;;;;;5148697;27;19930;-75
2022/07/15 10:41:51;;;;;;;;;;;25.60;91.10;;;;;;5142958;27;20275;-75
2022/07/15 10:44:17;;;;;;;;;;;25.40;90.40;;;;;;5168186;27;19930;-75
2022/07/15 10:46:42;;;;;;;;;;;25.00;90.80;;;;;;5164800;27;19975;-76
2022/07/15 10:49:08;;;;;;;;;;;24.50;91.20;;;;;;5147989;27;20330;-76
2022/07/15 10:51:35;;;;;;;;;;;24.90;91.30;;;;;;5165487;27;20309;-74
2022/07/15 10:54:02;;;;;;;;;;;24.90;91.90;;;;;;5146368;27;20014;-75
2022/07/15 10:56:37;;;;;;;;;;;24.70;91.00;;;;;;5148545;27;19970;-75
2022/07/15 10:59:15;;;;;;;;;;;24.30;91.60;;;;;;5144733;27;19936;-75
2022/07/15 11:01:43;;;;;;;;;;;23.90;92.10;;;;;;5148245;27;20376;-74
2022/07/15 11:04:09;;;;;;;;;;;23.30;93.60;;;;;;5146177;27;19935;-75
2022/07/15 11:06:54;;;;;;;;;;;22.70;93.50;;;;;;5147931;27;19971;-74
2022/07/15 11:09:38;;;;;;;;;;;22.30;94.10;;;;;;5141925;27;19944;-76
2022/07/15 11:12:04;;;;;;;;;;;22.70;94.50;;;;;;5146632;27;19922;-76
2022/07/15 11:14:43;;;;;;;;;;;23.50;93.70;;;;;;5144320;27;19929;-74
2022/07/15 11:17:10;;;;;;;;;;;24.00;93.40;;;;;;5147918;27;19934;-74
2022/07/15 11:19:36;;;;;;;;;;;24.20;92.90;;;;;;5146365;27;19923;-74
2022/07/15 11:22:02;;;;;;;;;;;24.00;92.00;;;;;;5146746;27;19919;-74
2022/07/15 11:24:28;;;;;;;;;;;23.50;91.80;;;;;;5147057;27;19926;-73
2022/07/15 11:26:53;;;;;;;;;;;23.40;92.80;;;;;;5163835;27;19919;-74
2022/07/15 11:29:19;;;;;;;;;;;23.70;92.80;;;;;;5144427;27;19923;-74
2022/07/15 11:31:45;;;;;;;;;;;23.80;92.30;;;;;;5145532;27;19930;-73
2022/07/15 11:34:10;;;;;;;;;;;24.00;92.30;;;;;;5148180;27;20385;-76
2022/07/15 11:36:36;;;;;;;;;;;23.70;91.70;;;;;;5163697;27;19923;-76
2022/07/15 11:39:02;;;;;;;;;;;23.50;92.30;;;;;;5147366;27;19974;-75
2022/07/15 11:44:30;;;;;;;;;;;23.40;93.00;;;;;;5135503;27;20335;-77
2022/07/15 11:46:59;;;;;;;;;;;23.30;93.00;;;;;;5145431;27;19923;-77
2022/07/15 11:49:26;;;;;;;;;;;23.00;93.20;;;;;;5165010;27;19929;-78
2022/07/15 11:51:52;;;;;;;;;;;23.10;93.30;;;;;;5164392;27;19991;-76
2022/07/15 11:54:17;;;;;;;;;;;22.70;93.10;;;;;;5147498;27;20017;-76
2022/07/15 11:56:43;;;;;;;;;;;22.40;93.40;;;;;;5144438;27;20430;-77
2022/07/15 11:59:09;;;;;;;;;;;22.20;94.00;;;;;;5164816;27;19927;-76
2022/07/15 12:01:34;;;;;;;;;;;22.00;94.00;;;;;;5148617;27;20267;-75
2022/07/15 12:04:00;;;;;;;;;;;21.90;94.40;;;;;;5143993;27;20005;-75
2022/07/15 12:06:30;;;;;;;;;;;21.60;94.50;;;;;;5147171;27;19930;-75
2022/07/15 12:08:56;;;;;;;;;;;21.60;94.10;;;;;;5163999;27;19923;-75
2022/07/15 12:11:22;;;;;;;;;;;21.50;94.10;;;;;;5163267;27;19930;-75
2022/07/15 12:13:53;;;;;;;;;;;21.60;94.20;;;;;;5162120;27;19923;-76
2022/07/15 12:16:23;;;;;;;;;;;21.60;94.00;;;;;;5162084;27;20413;-76
2022/07/15 12:18:49;;;;;;;;;;;21.60;94.00;;;;;;5164136;27;20370;-77
2022/07/15 12:21:15;;;;;;;;;;;22.00;94.20;;;;;;5164362;27;19929;-76
2022/07/15 12:23:41;;;;;;;;;;;22.70;93.80;;;;;;5147396;27;19923;-77
2022/07/15 12:26:07;;;;;;;;;;;23.00;93.30;;;;;;5143168;27;20374;-76
2022/07/15 12:28:34;;;;;;;;;;;23.10;92.00;;;;;;5143851;27;19923;-77
2022/07/15 12:30:59;;;;;;;;;;;23.20;92.10;;;;;;5166021;27;19958;-77
2022/07/15 12:33:25;;;;;;;;;;;23.40;92.40;;;;;;5143987;27;19953;-77
2022/07/15 12:36:11;;;;;;;;;;;23.70;92.50;;;;;;5165051;27;19923;-76
2022/07/15 12:38:36;;;;;;;;;;;23.70;92.00;;;;;;5141423;27;19975;-76
2022/07/15 12:41:08;;;;;;;;;;;23.80;91.90;;;;;;5165358;27;19927;-76
2022/07/15 12:43:51;;;;;;;;;;;23.80;91.90;;;;;;5136213;27;19927;-77
2022/07/15 12:46:17;;;;;;;;;;;23.90;92.00;;;;;;5162980;27;20378;-77
2022/07/15 12:48:43;;;;;;;;;;;23.90;92.30;;;;;;5145562;27;19966;-77
2022/07/15 12:51:08;;;;;;;;;;;24.20;92.00;;;;;;5164681;27;19926;-77
2022/07/15 12:53:37;;;;;;;;;;;24.30;91.80;;;;;;5143745;27;20397;-77
2022/07/15 12:56:03;;;;;;;;;;;24.60;92.20;;;;;;5165377;27;19930;-74
2022/07/15 12:58:30;;;;;;;;;;;24.70;92.00;;;;;;5143544;27;19926;-75
2022/07/15 13:01:07;;;;;;;;;;;24.60;91.50;;;;;;5138831;27;20013;-74
2022/07/15 13:03:32;;;;;;;;;;;24.20;92.00;;;;;;5140965;27;19930;-75
2022/07/15 13:06:01;;;;;;;;;;;23.80;92.80;;;;;;5146782;27;20009;-75
2022/07/15 13:08:28;;;;;;;;;;;23.70;92.90;;;;;;5139290;27;19967;-75
2022/07/15 13:10:55;;;;;;;;;;;23.40;93.50;;;;;;5157778;27;19930;-75
2022/07/15 13:13:22;;;;;;;;;;;23.50;93.70;;;;;;5146334;27;19922;-74
2022/07/15 13:15:48;;;;;;;;;;;23.40;93.40;;;;;;5162182;27;20378;-73
2022/07/15 13:18:14;;;;;;;;;;;23.70;93.60;;;;;;5164078;27;19930;-74
2022/07/15 13:20:40;;;;;;;;;;;24.20;93.60;;;;;;5164180;27;19944;-76
2022/07/15 13:23:06;;;;;;;;;;;24.40;93.00;;;;;;5165305;27;19923;-76
2022/07/15 13:25:31;;;;;;;;;;;24.30;93.00;;;;;;5150700;27;19969;-77
2022/07/15 13:27:58;;;;;;;;;;;24.40;92.90;;;;;;5143285;27;19968;-76
2022/07/15 13:30:24;;;;;;;;;;;24.30;92.90;;;;;;5170318;27;19958;-77
2022/07/15 13:32:50;;;;;;;;;;;24.30;92.70;;;;;;5161441;27;20461;-77
2022/07/15 13:35:15;;;;;;;;;;;24.10;92.40;;;;;;5164082;27;19923;-75
2022/07/15 13:37:41;;;;;;;;;;;24.20;92.40;;;;;;5148451;27;19945;-75
2022/07/15 13:40:07;;;;;;;;;;;24.10;93.00;;;;;;5149080;27;19935;-76
2022/07/15 13:42:33;;;;;;;;;;;24.00;92.40;;;;;;5148300;27;19927;-75
2022/07/15 13:44:59;;;;;;;;;;;24.10;93.00;;;;;;5147980;27;19950;-75
2022/07/15 13:47:25;;;;;;;;;;;24.00;92.60;;;;;;5150299;27;19958;-77
2022/07/15 13:52:46;;;;;;;;;;;23.50;93.40;;;;;;5146524;27;19930;-72
2022/07/15 13:55:12;;;;;;;;;;;23.80;93.40;;;;;;5165355;27;19923;-76
2022/07/15 13:57:38;;;;;;;;;;;23.70;93.50;;;;;;5164517;27;19923;-73
2022/07/15 14:00:04;;;;;;;;;;;23.60;93.10;;;;;;5167156;27;19923;-74
2022/07/15 14:02:30;;;;;;;;;;;23.70;93.50;;;;;;5167791;27;19919;-73
2022/07/15 14:04:55;;;;;;;;;;;23.70;93.60;;;;;;5146470;27;20025;-73
2022/07/15 14:07:21;;;;;;;;;;;23.50;92.90;;;;;;5150276;27;19925;-83
2022/07/15 14:09:46;;;;;;;;;;;23.50;93.40;;;;;;5165167;27;19930;-75
2022/07/15 14:12:12;;;;;;;;;;;23.30;93.70;;;;;;5167956;27;19930;-71
2022/07/15 14:14:37;;;;;;;;;;;23.30;93.90;;;;;;5165598;27;19930;-73
2022/07/15 14:17:03;;;;;;;;;;;23.20;94.10;;;;;;5146764;27;19930;-73
2022/07/15 14:19:28;;;;;;;;;;;23.30;94.00;;;;;;5165574;27;19926;-72
2022/07/15 14:21:54;;;;;;;;;;;22.90;93.90;;;;;;5162482;27;19930;-73
2022/07/15 14:24:20;;;;;;;;;;;22.70;94.10;;;;;;5144992;27;19930;-73
2022/07/15 14:26:45;;;;;;;;;;;22.40;94.90;;;;;;5145811;27;20294;-72